New England — V7HF3 — position and weather

sailwx.info

Track history (hours):
 
Tides and Currents Weather Stations Pressure Air Temp Water Temp Dewpoint Dewpoint Depression Visibility Wind Speed Wind Dir Waves Ship Positions

New England

Last reported at 2015-Apr-21 14:33 UTC. Time now 2015-May-05 19:21 UTC.
Position N 42°29' W 070°42'.
Warning: this ship's position is 14 days out of date.

Length 182 m; draft 7.2 m.

Type: Tanker. MMSI: 538002220.

Date/timePositionNaut miles runAvg speedWind from/ knotsBaromVisibWave heightAir tempDewpointWater temp
2015-Apr-21 14:33N 42°29' W 070°42'15 0.5
2015-Apr-20 07:06N 42°24' W 071°01'10 0.6
2015-Apr-19 14:18N 42°26' W 070°47'0 0.0
2015-Apr-19 12:29N 42°26' W 070°47'0 0.0
2015-Apr-19 11:29N 42°26' W 070°47'0 0.1
2015-Apr-19 10:25N 42°26' W 070°47'0 0.0
2015-Apr-19 09:16N 42°26' W 070°47'0 0.0
2015-Apr-19 06:14N 42°26' W 070°47'0 0.1
2015-Apr-19 05:32N 42°26' W 070°47'0 0.1
2015-Apr-19 04:25N 42°26' W 070°47'0 0.0
2015-Apr-19 03:31N 42°26' W 070°47'0 0.0
2015-Apr-19 02:33N 42°26' W 070°47'0 0.0
2015-Apr-19 01:04N 42°26' W 070°47'0 0.0
2015-Apr-19 00:33N 42°26' W 070°47'0 0.1
2015-Apr-18 23:33N 42°26' W 070°47'5 5.1
2015-Apr-18 22:31N 42°29' W 070°41'  
2015-Apr-16 13:23N 42°30' W 070°38'17 0.4
2015-Apr-14 18:04N 42°20' W 070°58'0 0.1
2015-Apr-14 17:10N 42°20' W 070°58'0 0.1
2015-Apr-14 16:22N 42°20' W 070°58'0 0.0
2015-Apr-14 14:33N 42°20' W 070°58'0 0.0
2015-Apr-14 10:22N 42°20' W 070°58'0 0.1
2015-Apr-14 09:25N 42°20' W 070°58'1 1.5
2015-Apr-14 08:33N 42°21' W 070°56'9 8.7
2015-Apr-14 07:33N 42°25' W 070°46'1412.9
2015-Apr-14 06:29N 42°34' W 070°31'8912.8
2015-Apr-13 23:33N 43°22' W 068°50'  
2015-Apr-11 19:26N 42°28' W 070°43'  
Track history (hours):
 
Tides and Currents Weather Stations Pressure Air Temp Water Temp Dewpoint Dewpoint Depression Visibility Wind Speed Wind Dir Waves Ship Positions

New England

Last reported at 2015-Apr-21 14:33 UTC. Time now 2015-May-05 19:21 UTC.
Position N 42°29' W 070°42'.
Warning: this ship's position is 14 days out of date.

Length 182 m; draft 7.2 m.

Type: Tanker. MMSI: 538002220.

Date/timePositionNaut miles runAvg speedWind from/ knotsBaromVisibWave heightAir tempDewpointWater temp
2015-Apr-21 14:33N 42°29' W 070°42'15 0.5
2015-Apr-20 07:06N 42°24' W 071°01'10 0.6
2015-Apr-19 14:18N 42°26' W 070°47'0 0.0
2015-Apr-19 12:29N 42°26' W 070°47'0 0.0
2015-Apr-19 11:29N 42°26' W 070°47'0 0.1
2015-Apr-19 10:25N 42°26' W 070°47'0 0.0
2015-Apr-19 09:16N 42°26' W 070°47'0 0.0
2015-Apr-19 06:14N 42°26' W 070°47'0 0.1
2015-Apr-19 05:32N 42°26' W 070°47'0 0.1
2015-Apr-19 04:25N 42°26' W 070°47'0 0.0
2015-Apr-19 03:31N 42°26' W 070°47'0 0.0
2015-Apr-19 02:33N 42°26' W 070°47'0 0.0
2015-Apr-19 01:04N 42°26' W 070°47'0 0.0
2015-Apr-19 00:33N 42°26' W 070°47'0 0.1
2015-Apr-18 23:33N 42°26' W 070°47'5 5.1
2015-Apr-18 22:31N 42°29' W 070°41'  
2015-Apr-16 13:23N 42°30' W 070°38'17 0.4
2015-Apr-14 18:04N 42°20' W 070°58'0 0.1
2015-Apr-14 17:10N 42°20' W 070°58'0 0.1
2015-Apr-14 16:22N 42°20' W 070°58'0 0.0
2015-Apr-14 14:33N 42°20' W 070°58'0 0.0
2015-Apr-14 10:22N 42°20' W 070°58'0 0.1
2015-Apr-14 09:25N 42°20' W 070°58'1 1.5
2015-Apr-14 08:33N 42°21' W 070°56'9 8.7
2015-Apr-14 07:33N 42°25' W 070°46'1412.9
2015-Apr-14 06:29N 42°34' W 070°31'8912.8
2015-Apr-13 23:33N 43°22' W 068°50'  
2015-Apr-11 19:26N 42°28' W 070°43'  

Dump ship's entire track history